Flight Track Log - Related Links

Times and Time Zones

All times are in EDT time to prevent confusion due to time zone crossing. See the RPA4907 flight status page for this flight to view local times or setup timezone preferences in your user account.

Time Position Orientation Groundspeed Altitude Reporting Facility
EDT Latitude Longitude Course Direction KTS MPH feet Rate Location/Type
Wed 02:52:44 PM 40.6667 -74.1833 246° West 178 205 1,000  Level New York TRACON
Wed 02:53:38 PM 40.6333 -74.2167 217° Southwest 220 253 2,500 2,368 Climbing New York TRACON
Wed 02:54:38 PM 40.6167 -74.2833 252° West 191 220 5,500 2,650 Climbing New York TRACON
Wed 02:55:00 PM 40.5772 -74.4972 245° Southwest  Level FlightAware Approximate
Wed 02:55:38 PM 40.6167 -74.3500 270° West 189 217 7,800  Level New York TRACON
Wed 02:56:00 PM 40.5372 -74.6095 245° Southwest  Level FlightAware Approximate
Wed 02:56:38 PM 40.6167 -74.4167 270° West 196 226 9,800  Level New York TRACON
Wed 02:57:00 PM 40.4995 -74.7183 246° West  Level FlightAware Approximate
Wed 02:57:38 PM 40.6000 -74.5000 255° West 212 244 11,000  Level New York TRACON
Wed 02:58:00 PM 40.4630 -74.8277 246° West  Level FlightAware Approximate
Wed 02:58:38 PM 40.5667 -74.5667 237° Southwest 229 264 12,400  Level New York TRACON
Wed 02:59:38 PM 40.5500 -74.6500 255° West 241 277 13,700 824 Climbing New York TRACON
Wed 03:01:40 PM 40.4750 -74.8308 241° Southwest 283 326 14,900 689 Climbing New York Center
Wed 03:02:41 PM 40.4406 -74.9214 243° Southwest 283 326 15,800 595 Climbing New York Center
Wed 03:03:41 PM 40.4003 -75.0061 238° Southwest 283 326 16,100 100 Climbing New York Center
Wed 03:04:41 PM 40.3453 -75.0792 225° Southwest 302 348 16,000 -51 Descending New York Center
Wed 03:05:39 PM 40.2861 -75.1597 226° Southwest 308 354 16,000  Level New York Center
Wed 03:06:40 PM 40.2203 -75.2508 227° Southwest 313 360 16,000 50 Level New York Center
Wed 03:07:39 PM 40.1606 -75.3392 229° Southwest 322 371 16,100 50 Climbing New York Center
Wed 03:08:39 PM 40.1058 -75.4089 224° Southwest 322 371 16,100  Level New York Center
Wed 03:09:40 PM 40.0394 -75.5022 227° Southwest 322 371 16,100  Level New York Center
Wed 03:10:41 PM 39.9797 -75.5847 227° Southwest 322 371 16,100  Level New York Center
Wed 03:11:39 PM 39.9203 -75.6672 227° Southwest 322 371 16,100  Level New York Center
Wed 03:12:41 PM 39.8703 -75.7639 236° Southwest 322 371 16,100  Level New York Center
Wed 03:13:41 PM 39.8225 -75.8578 236° Southwest 322 371 16,100 -607 Level New York Center
Wed 03:15:39 PM 39.7333 -76.0500 239° Southwest 319 367 14,300 -1,180 Descending Potomac TRACON
Wed 03:16:39 PM 39.6833 -76.1333 232° Southwest 303 349 12,600 -1,667 Descending Potomac TRACON
Wed 03:17:45 PM 39.6167 -76.2333 229° Southwest 289 333 10,800 -1,429 Descending Potomac TRACON
Wed 03:18:45 PM 39.5833 -76.3167 243° Southwest 265 305 9,600 -1,043 Descending Potomac TRACON
Wed 03:19:40 PM 39.5500 -76.3833 237° Southwest 265 305 8,800 -1,190 Descending Potomac TRACON
Wed 03:20:46 PM 39.5000 -76.4667 232° Southwest 264 304 7,200 -1,238 Descending Potomac TRACON
Wed 03:21:46 PM 39.4667 -76.5500 243° Southwest 250 288 6,200 -1,000 Descending Potomac TRACON
Wed 03:22:40 PM 39.4333 -76.6333 243° Southwest 246 283 5,300 -632 Descending Potomac TRACON
Wed 03:23:40 PM 39.4167 -76.7000 252° West 238 274 5,000 -316 Descending Potomac TRACON
Wed 03:24:34 PM 39.4000 -76.7667 252° West 234 269 4,700 -526 Descending Potomac TRACON
Wed 03:25:34 PM 39.3500 -76.8333 226° Southwest 234 269 4,000 -650 Descending Potomac TRACON
Wed 03:26:34 PM 39.3000 -76.8500 194° South 226 260 3,400 -600 Descending Potomac TRACON

Login

Don't have an account? Register now (free) for customized features, flight alerts, and more!